Time;durP1;ratioP1;P1;durP2;ratioP2;P2;SDS_P1;SDS_P2;PMS_P1;PMS_P2;Temp;Humidity;BMP_temperature;BMP_pressure;BME280_temperature;BME280_humidity;BME280_pressure;Samples;Min_cycle;Max_cycle;Signal;HPM_P1;HPM_P2
2022/09/28 00:01:56;;;;;;;5.43;0.45;;;;;;;4.59;57.57;99521.69;5008311;28;20274;-67
2022/09/28 00:04:22;;;;;;;0.98;0.40;;;;;;;4.60;57.53;99523.38;5010443;28;20073;-68
2022/09/28 00:06:47;;;;;;;3.53;0.80;;;;;;;4.58;57.14;99523.41;5011130;28;20026;-67
2022/09/28 00:09:14;;;;;;;5.10;1.00;;;;;;;4.57;57.46;99520.91;5009634;28;20063;-66
2022/09/28 00:11:40;;;;;;;2.85;0.95;;;;;;;4.53;57.62;99519.31;5012372;28;20030;-66
2022/09/28 00:14:06;;;;;;;2.80;0.60;;;;;;;4.48;57.64;99522.09;5009754;28;20056;-67
2022/09/28 00:16:35;;;;;;;1.30;0.70;;;;;;;4.48;57.73;99521.25;5011750;28;20441;-67
2022/09/28 00:19:01;;;;;;;2.83;0.40;;;;;;;4.47;57.55;99512.63;5013448;28;20046;-67
2022/09/28 00:21:29;;;;;;;1.80;0.77;;;;;;;4.42;57.84;99517.97;5012749;28;20037;-67
2022/09/28 00:24:16;;;;;;;1.75;0.70;;;;;;;4.39;57.46;99512.91;5011298;28;20033;-65
2022/09/28 00:26:48;;;;;;;2.33;0.68;;;;;;;4.40;57.47;99514.56;5015837;28;21481;-68
2022/09/28 00:29:35;;;;;;;2.63;1.05;;;;;;;4.38;57.73;99511.19;4999823;28;20033;-65
2022/09/28 00:32:06;;;;;;;1.50;0.32;;;;;;;4.30;57.99;99518.41;5008069;28;20057;-66
2022/09/28 00:34:35;;;;;;;1.80;0.50;;;;;;;4.35;57.78;99523.41;5013138;28;20018;-67
2022/09/28 00:37:02;;;;;;;3.75;0.77;;;;;;;4.35;57.72;99516.50;5013050;28;20034;-68
2022/09/28 00:39:30;;;;;;;8.00;1.40;;;;;;;4.40;57.51;99514.56;5011389;28;20033;-66
2022/09/28 00:41:56;;;;;;;2.17;0.93;;;;;;;4.38;57.42;99516.38;5013180;28;20033;-65
2022/09/28 00:44:24;;;;;;;2.03;1.00;;;;;;;4.36;57.48;99515.63;5017120;28;20272;-66
2022/09/28 00:47:31;;;;;;;2.97;0.80;;;;;;;4.45;57.37;99506.66;5013115;28;20506;-67
2022/09/28 00:50:02;;;;;;;1.45;1.00;;;;;;;4.37;57.76;99504.34;4979066;28;20045;-65
2022/09/28 00:52:33;;;;;;;3.30;0.73;;;;;;;4.46;57.13;99502.34;5008309;28;20042;-66
2022/09/28 00:55:02;;;;;;;3.42;1.20;;;;;;;4.46;57.13;99498.00;5015265;28;20037;-64
2022/09/28 00:57:28;;;;;;;3.80;1.25;;;;;;;4.40;57.47;99491.28;5007213;28;20049;-66
2022/09/28 00:59:54;;;;;;;1.65;0.85;;;;;;;4.40;57.08;99491.28;5011759;28;20079;-64
2022/09/28 01:02:20;;;;;;;3.28;1.27;;;;;;;4.45;57.46;99487.69;5008911;28;20037;-64
2022/09/28 01:04:47;;;;;;;3.35;1.33;;;;;;;4.40;57.45;99493.88;4992873;28;20041;-65
2022/09/28 01:07:15;;;;;;;5.28;1.85;;;;;;;4.35;57.67;99490.63;4990198;28;20041;-67
2022/09/28 01:09:41;;;;;;;3.63;1.85;;;;;;;4.41;57.93;99490.41;5015256;28;20033;-67
2022/09/28 01:12:06;;;;;;;3.47;1.50;;;;;;;4.40;57.47;99486.13;4989816;28;20370;-65
2022/09/28 01:14:32;;;;;;;2.10;1.27;;;;;;;4.40;57.41;99493.88;4993132;28;20828;-65
2022/09/28 01:17:55;;;;;;;4.20;1.23;;;;;;;4.42;57.53;99494.66;5028765;28;20136;-66
2022/09/28 01:20:38;;;;;;;2.25;1.58;;;;;;;4.36;57.48;99492.34;4920176;28;20046;-67
2022/09/28 01:23:28;;;;;;;2.33;1.25;;;;;;;4.38;56.92;99490.50;4893138;29;20065;-65
2022/09/28 01:26:17;;;;;;;2.05;1.48;;;;;;;4.31;56.88;99494.22;4976829;28;20042;-66
2022/09/28 01:28:46;;;;;;;1.80;1.00;;;;;;;4.26;57.21;99484.97;5026427;28;20049;-66
2022/09/28 01:31:14;;;;;;;1.52;0.82;;;;;;;4.20;56.92;99481.66;4996399;28;20034;-65
2022/09/28 01:33:54;;;;;;;1.35;0.73;;;;;;;4.23;57.14;99485.91;5012685;28;20124;-66
2022/09/28 01:36:33;;;;;;;3.03;1.38;;;;;;;4.21;57.34;99487.72;4997602;28;20029;-66
2022/09/28 01:39:11;;;;;;;3.30;1.33;;;;;;;4.18;56.93;99480.03;5028235;28;20050;-66
2022/09/28 01:41:40;;;;;;;2.30;1.08;;;;;;;4.11;57.12;99478.56;5030194;28;20021;-66
2022/09/28 01:44:11;;;;;;;3.20;1.52;;;;;;;4.11;56.82;99476.81;5008080;28;20041;-66
2022/09/28 01:46:43;;;;;;;1.75;1.05;;;;;;;4.10;57.34;99471.72;5029605;28;20052;-66
2022/09/28 01:49:19;;;;;;;2.53;1.40;;;;;;;4.10;57.23;99474.31;4997539;28;20030;-66
2022/09/28 01:51:52;;;;;;;2.55;1.27;;;;;;;4.11;57.29;99471.66;5013661;28;20044;-66
2022/09/28 01:54:24;;;;;;;3.90;1.45;;;;;;;4.11;57.09;99465.66;5007502;28;20040;-66
2022/09/28 01:57:07;;;;;;;1.98;1.33;;;;;;;4.04;56.98;99477.09;5012055;28;20128;-66
2022/09/28 01:59:37;;;;;;;2.95;1.60;;;;;;;3.91;56.87;99463.75;5012224;28;20041;-65
2022/09/28 02:02:09;;;;;;;2.25;1.30;;;;;;;3.86;57.17;99461.34;5013647;28;20045;-66
2022/09/28 02:04:34;;;;;;;;;;;;;;;3.78;57.29;99463.34;5012772;28;20068;-66
2022/09/28 02:07:07;;;;;;;5.30;1.63;;;;;;;3.71;57.58;99462.69;5006277;28;19924;-65
2022/09/28 02:09:38;;;;;;;4.65;1.70;;;;;;;3.75;57.16;99463.44;5006702;28;20087;-65
2022/09/28 02:12:20;;;;;;;2.42;1.50;;;;;;;3.65;57.69;99459.47;5008204;28;20041;-66
2022/09/28 02:14:51;;;;;;;2.25;1.35;;;;;;;3.69;57.28;99463.66;5024714;28;20441;-65
2022/09/28 02:17:17;;;;;;;6.35;1.90;;;;;;;3.70;57.75;99465.34;5013078;28;20048;-65
2022/09/28 02:19:46;;;;;;;5.07;2.30;;;;;;;3.65;57.63;99459.47;5007743;28;20037;-64
2022/09/28 02:22:24;;;;;;;5.25;2.85;;;;;;;3.65;57.30;99452.59;5011074;28;20042;-65
2022/09/28 02:25:06;;;;;;;2.92;2.05;;;;;;;3.63;57.13;99459.56;5009502;28;20029;-67
2022/09/28 02:27:58;;;;;;;3.30;1.83;;;;;;;3.51;57.30;99460.78;5012148;28;20414;-67
2022/09/28 02:30:24;;;;;;;2.55;1.73;;;;;;;3.43;57.58;99460.22;5014247;28;20049;-66
2022/09/28 02:32:53;;;;;;;4.05;2.10;;;;;;;3.41;57.81;99467.16;5010755;28;20249;-66
2022/09/28 02:35:19;;;;;;;3.47;1.50;;;;;;;3.38;57.86;99464.66;5024698;28;20351;-66
2022/09/28 02:37:46;;;;;;;4.15;1.67;;;;;;;3.33;57.86;99459.66;4997508;28;20045;-66
2022/09/28 02:40:14;;;;;;;2.72;1.58;;;;;;;3.32;57.48;99470.88;5011343;28;20414;-66
2022/09/28 02:43:11;;;;;;;2.90;1.60;;;;;;;3.31;57.22;99458.00;5011420;28;20501;-65
2022/09/28 02:45:46;;;;;;;3.15;1.50;;;;;;;3.26;57.25;99465.03;5030089;28;20029;-65
2022/09/28 02:48:28;;;;;;;2.53;1.48;;;;;;;3.15;57.23;99463.63;5010702;28;20040;-66
2022/09/28 02:51:33;;;;;;;1.85;1.10;;;;;;;3.08;57.91;99472.47;5012898;28;20033;-64
2022/09/28 02:54:23;;;;;;;2.15;1.00;;;;;;;3.12;57.67;99466.31;5005260;28;20045;-65
2022/09/28 02:57:01;;;;;;;5.38;1.20;;;;;;;3.09;57.77;99458.69;4990244;28;20052;-63
2022/09/28 02:59:32;;;;;;;2.22;1.35;;;;;;;3.01;57.77;99463.25;5011410;28;20061;-65
2022/09/28 03:02:15;;;;;;;3.83;1.88;;;;;;;3.01;57.79;99460.66;5011833;28;20092;-68
2022/09/28 03:04:59;;;;;;;2.15;1.00;;;;;;;3.02;57.70;99464.06;5012932;28;20474;-68
2022/09/28 03:07:37;;;;;;;3.38;1.23;;;;;;;2.96;57.42;99462.53;5012464;28;20041;-69
2022/09/28 03:10:11;;;;;;;2.20;1.25;;;;;;;2.94;57.59;99477.22;5005401;28;20034;-68
2022/09/28 03:12:37;;;;;;;2.10;1.25;;;;;;;2.94;57.49;99477.22;4996418;28;20034;-69
2022/09/28 03:15:24;;;;;;;2.40;1.42;;;;;;;2.89;57.29;99473.94;5026256;28;20095;-69
2022/09/28 03:17:51;;;;;;;3.63;1.40;;;;;;;2.82;57.46;99481.00;5027580;28;20041;-65
2022/09/28 03:20:17;;;;;;;3.80;1.38;;;;;;;2.87;57.34;99479.16;5008872;28;20108;-65
2022/09/28 03:22:44;;;;;;;2.20;1.60;;;;;;;2.94;57.52;99474.66;5006445;28;20038;-67
2022/09/28 03:25:11;;;;;;;1.92;1.23;;;;;;;2.91;57.42;99465.28;5014241;28;20042;-70
2022/09/28 03:27:38;;;;;;;2.28;1.25;;;;;;;2.96;57.41;99467.72;5011507;28;20398;-71
2022/09/28 03:30:04;;;;;;;2.92;1.60;;;;;;;3.05;57.76;99467.41;5013934;28;20040;-70
2022/09/28 03:32:30;;;;;;;3.38;1.80;;;;;;;3.12;57.47;99462.91;5005947;28;20080;-71
2022/09/28 03:34:56;;;;;;;4.47;2.30;;;;;;;3.11;57.77;99476.69;5006157;28;20069;-67
2022/09/28 03:37:22;;;;;;;4.00;2.38;;;;;;;3.25;57.68;99466.78;5006944;28;20161;-67
2022/09/28 03:39:47;;;;;;;6.25;2.38;;;;;;;3.29;57.82;99467.56;5029184;28;20406;-67
2022/09/28 03:42:13;;;;;;;4.63;2.10;;;;;;;3.35;57.78;99470.78;5013441;28;20043;-68
2022/09/28 03:44:43;;;;;;;3.75;1.90;;;;;;;3.41;57.58;99471.50;5009843;28;20483;-66
2022/09/28 03:47:09;;;;;;;6.85;1.83;;;;;;;3.44;57.57;99472.22;5015176;28;20053;-68
2022/09/28 03:49:35;;;;;;;8.63;1.83;;;;;;;3.42;57.15;99465.41;4991489;28;20236;-67
2022/09/28 03:52:02;;;;;;;2.72;1.30;;;;;;;3.35;57.15;99470.78;5010482;28;20045;-67
2022/09/28 03:54:28;;;;;;;2.05;1.17;;;;;;;3.33;57.34;99462.22;5032878;28;20394;-66
2022/09/28 03:56:54;;;;;;;2.28;1.45;;;;;;;3.29;57.31;99471.00;5009832;28;20088;-66
2022/09/28 03:59:19;;;;;;;2.70;1.65;;;;;;;3.30;57.14;99466.66;4992810;28;20026;-66
2022/09/28 04:01:48;;;;;;;2.60;1.50;;;;;;;3.29;57.09;99471.00;5010837;28;20059;-68
2022/09/28 04:04:13;;;;;;;2.42;1.90;;;;;;;3.24;57.17;99477.16;5015336;28;20061;-66
2022/09/28 04:06:39;;;;;;;3.90;2.42;;;;;;;3.18;57.03;99473.88;5016421;28;20056;-69
2022/09/28 04:09:05;;;;;;;2.45;1.45;;;;;;;3.16;57.37;99475.66;5007742;28;20473;-68
2022/09/28 04:11:30;;;;;;;18.83;1.92;;;;;;;3.14;57.24;99477.47;5015364;28;20068;-68
2022/09/28 04:13:57;;;;;;;3.58;2.13;;;;;;;3.25;57.39;99473.66;5024619;28;20702;-70
2022/09/28 04:16:22;;;;;;;3.08;1.98;;;;;;;3.26;57.35;99471.03;5011726;28;20033;-73
2022/09/28 04:19:14;;;;;;;2.65;1.80;;;;;;;3.28;57.35;99474.44;5010689;28;20046;-73
2022/09/28 04:21:54;;;;;;;4.13;1.92;;;;;;;3.28;57.59;99474.44;5009284;28;20036;-72
2022/09/28 04:24:21;;;;;;;2.92;1.20;;;;;;;3.32;57.23;99485.53;5013925;28;20116;-71
2022/09/28 04:26:48;;;;;;;5.38;1.80;;;;;;;3.26;57.26;99475.38;5027197;28;20073;-71
2022/09/28 04:29:15;;;;;;;2.97;1.75;;;;;;;3.28;57.73;99474.44;5011883;28;20037;-72
2022/09/28 04:31:50;;;;;;;3.67;1.92;;;;;;;3.41;57.87;99474.91;5010207;28;20116;-72
2022/09/28 04:34:19;;;;;;;7.22;1.80;;;;;;;3.41;57.61;99480.09;5034419;28;20056;-71
2022/09/28 04:36:46;;;;;;;2.38;1.55;;;;;;;3.42;57.50;99476.59;5014118;28;20148;-72
2022/09/28 04:39:13;;;;;;;2.72;1.80;;;;;;;3.48;57.45;99475.56;5016616;28;20056;-72
2022/09/28 04:41:41;;;;;;;2.15;1.50;;;;;;;3.48;57.34;99478.97;5009293;28;20099;-73
2022/09/28 04:44:06;;;;;;;7.88;1.20;;;;;;;3.35;57.46;99467.34;5032545;28;20081;-69
2022/09/28 04:46:32;;;;;;;25.83;2.38;;;;;;;3.22;57.67;99468.63;5009376;28;20518;-72
2022/09/28 04:49:16;;;;;;;1.90;1.42;;;;;;;3.33;57.54;99467.41;5009539;28;20133;-73
2022/09/28 04:51:46;;;;;;;2.78;1.63;;;;;;;3.28;57.71;99465.84;5007367;28;20578;-72
2022/09/28 04:54:11;;;;;;;2.45;1.25;;;;;;;3.29;57.41;99464.97;5011630;28;20029;-71
2022/09/28 04:56:37;;;;;;;5.10;1.77;;;;;;;3.22;57.22;99469.44;4992604;28;20029;-72
2022/09/28 04:59:03;;;;;;;3.80;1.08;;;;;;;3.25;57.06;99468.50;5012802;28;20045;-70
2022/09/28 05:01:29;;;;;;;1.40;0.98;;;;;;;3.16;57.29;99460.19;5011885;28;20375;-70
2022/09/28 05:04:13;;;;;;;1.73;1.25;;;;;;;3.02;57.11;99461.50;5009133;28;20331;-72
2022/09/28 05:07:02;;;;;;;5.72;1.60;;;;;;;2.96;57.16;99462.53;5006105;28;20389;-70
2022/09/28 05:09:27;;;;;;;2.60;1.40;;;;;;;2.89;57.14;99461.03;5017091;28;20116;-66
2022/09/28 05:11:53;;;;;;;1.65;1.30;;;;;;;2.78;57.39;99469.13;4989308;28;20037;-69
2022/09/28 05:14:21;;;;;;;2.47;1.63;;;;;;;2.85;57.25;99472.34;5010778;28;20612;-67
2022/09/28 05:16:47;;;;;;;1.42;1.23;;;;;;;2.73;56.80;99463.22;5029660;28;20072;-69
2022/09/28 05:19:16;;;;;;;1.70;0.95;;;;;;;2.77;57.23;99472.56;5015710;28;20034;-68
2022/09/28 05:21:45;;;;;;;2.03;1.40;;;;;;;2.80;57.07;99474.22;5015636;28;20040;-68
2022/09/28 05:24:11;;;;;;;3.10;1.48;;;;;;;2.63;57.46;99475.56;5030872;28;20059;-69
2022/09/28 05:26:38;;;;;;;2.30;1.50;;;;;;;2.67;57.41;99476.34;5010325;28;20017;-68
2022/09/28 05:29:05;;;;;;;12.25;1.83;;;;;;;2.74;57.45;99475.25;4988357;28;20286;-67
2022/09/28 05:31:40;;;;;;;1.40;1.13;;;;;;;2.86;57.30;99476.63;5009703;28;20054;-68
2022/09/28 05:34:25;;;;;;;3.78;1.98;;;;;;;2.89;57.38;99473.94;4991587;28;20041;-69
2022/09/28 05:36:52;;;;;;;3.60;1.77;;;;;;;2.89;57.38;99479.09;5008259;28;20045;-72
2022/09/28 05:39:18;;;;;;;5.50;2.25;;;;;;;2.97;57.61;99474.56;5016267;28;20026;-70
2022/09/28 05:41:43;;;;;;;4.30;2.75;;;;;;;3.01;57.34;99480.47;5007774;28;20025;-71
2022/09/28 05:44:10;;;;;;;7.13;2.78;;;;;;;3.10;57.02;99475.03;5012296;28;20029;-71
2022/09/28 05:46:36;;;;;;;5.75;3.88;;;;;;;3.15;57.12;99468.81;4992828;28;20482;-67
2022/09/28 05:49:02;;;;;;;8.52;4.63;;;;;;;3.15;57.04;99467.97;5012255;28;20128;-68
2022/09/28 05:51:28;;;;;;;53.38;4.13;;;;;;;2.95;56.44;99466.00;5008374;28;20029;-71
2022/09/28 05:53:55;;;;;;;35.72;3.53;;;;;;;2.98;57.07;99465.94;4988115;28;20177;-71
2022/09/28 05:56:22;;;;;;;2.38;1.98;;;;;;;3.10;57.12;99475.03;5014398;28;20410;-68
2022/09/28 05:58:49;;;;;;;5.35;1.80;;;;;;;3.11;57.11;99463.78;5012472;28;20095;-68
2022/09/28 06:01:17;;;;;;;7.35;2.17;;;;;;;2.86;57.19;99466.28;5007562;28;21042;-70
2022/09/28 06:03:44;;;;;;;6.95;1.95;;;;;;;2.86;57.50;99471.44;5026093;28;20037;-66
2022/09/28 06:06:10;;;;;;;30.83;2.60;;;;;;;2.33;58.04;99470.41;5008176;28;20106;-68
2022/09/28 06:08:37;;;;;;;39.97;2.95;;;;;;;2.44;58.10;99475.25;5011662;28;20092;-69
2022/09/28 06:11:26;;;;;;;2.45;1.65;;;;;;;3.02;57.90;99464.91;5008929;28;20064;-68
2022/09/28 06:13:54;;;;;;;38.50;2.30;;;;;;;2.53;57.87;99475.00;5011247;28;20060;-72
2022/09/28 06:16:20;;;;;;;36.92;2.72;;;;;;;2.49;57.88;99480.31;5010763;28;20124;-68
2022/09/28 06:18:45;;;;;;;15.60;2.28;;;;;;;2.73;57.85;99477.00;5004549;28;20128;-70
2022/09/28 06:21:29;;;;;;;49.85;2.85;;;;;;;2.19;58.89;99474.25;5011443;28;20079;-69
2022/09/28 06:23:55;;;;;;;33.47;2.50;;;;;;;2.73;58.62;99470.97;5006118;28;20116;-64
2022/09/28 06:26:20;;;;;;;1.95;1.45;;;;;;;3.17;57.73;99473.94;5017147;28;20029;-72
2022/09/28 06:28:46;;;;;;;2.97;1.85;;;;;;;3.24;57.48;99472.00;4992526;28;20075;-72
2022/09/28 06:31:11;;;;;;;47.05;3.28;;;;;;;3.34;57.25;99476.00;5015697;28;20057;-73
2022/09/28 06:33:45;;;;;;;28.83;5.68;;;;;;;3.28;57.24;99479.59;5007647;28;20044;-73
2022/09/28 06:36:11;;;;;;;11.40;1.98;;;;;;;3.38;56.48;99485.31;5010943;28;20125;-66
2022/09/28 06:38:37;;;;;;;2.33;1.85;;;;;;;3.55;57.26;99477.88;5010975;28;20185;-67
2022/09/28 06:41:05;;;;;;;4.07;1.90;;;;;;;3.74;57.33;99480.69;5004991;28;20026;-66
2022/09/28 06:43:32;;;;;;;8.20;2.63;;;;;;;3.57;56.39;99476.09;5009522;28;20029;-68
2022/09/28 06:46:16;;;;;;;14.23;2.42;;;;;;;4.01;55.95;99491.81;5010240;28;20084;-63
2022/09/28 06:48:48;;;;;;;5.13;1.70;;;;;;;4.33;55.68;99484.66;5004870;28;20077;-63
2022/09/28 06:51:26;;;;;;;4.30;2.05;;;;;;;4.55;54.75;99489.06;5015039;28;20232;-71
2022/09/28 06:54:10;;;;;;;3.17;2.92;;;;;;;4.77;55.72;99491.69;4992442;28;20077;-68
2022/09/28 06:56:41;;;;;;;9.73;3.85;;;;;;;5.10;54.53;99502.53;5013025;28;20064;-66
2022/09/28 06:59:06;;;;;;;3.45;2.78;;;;;;;5.40;55.07;99497.88;5004399;28;20503;-68
2022/09/28 07:01:33;;;;;;;4.50;4.10;;;;;;;5.55;54.16;99499.00;5006292;28;20478;-70
2022/09/28 07:04:10;;;;;;;19.38;2.92;;;;;;;4.63;53.71;99506.00;5021005;28;20045;-68
2022/09/28 07:06:54;;;;;;;6.28;2.40;;;;;;;4.56;54.54;99498.50;5008246;28;20111;-68
2022/09/28 07:09:43;;;;;;;12.63;2.55;;;;;;;4.98;54.35;99508.16;4991941;28;20030;-68
2022/09/28 07:12:18;;;;;;;4.93;2.40;;;;;;;5.42;54.25;99506.41;4997938;28;20034;-67
2022/09/28 07:14:55;;;;;;;15.20;1.75;;;;;;;5.29;52.97;99509.56;5009823;28;20038;-69
2022/09/28 07:17:24;;;;;;;38.72;2.20;;;;;;;4.81;53.85;99506.19;5017671;28;20037;-68
2022/09/28 07:19:51;;;;;;;9.82;3.13;;;;;;;5.53;54.66;99512.94;5009659;28;20037;-69
2022/09/28 07:22:18;;;;;;;7.45;4.03;;;;;;;6.08;53.61;99516.66;5017197;28;20551;-69
2022/09/28 07:24:45;;;;;;;6.68;1.70;;;;;;;6.03;52.93;99523.75;5009077;28;20478;-67
2022/09/28 07:27:29;;;;;;;2.03;1.83;;;;;;;6.46;51.39;99518.47;5012959;28;20040;-67
2022/09/28 07:30:14;;;;;;;4.18;1.65;;;;;;;6.52;51.70;99526.00;5013395;28;20532;-68
2022/09/28 07:32:55;;;;;;;15.60;2.78;;;;;;;6.54;50.84;99524.19;5009012;28;20033;-68
2022/09/28 07:35:56;;;;;;;16.83;1.70;;;;;;;6.98;50.25;99525.69;5010116;28;20041;-69
2022/09/28 07:38:26;;;;;;;30.83;2.30;;;;;;;6.63;51.47;99538.50;5010222;28;20477;-68
2022/09/28 07:41:10;;;;;;;2.70;1.92;;;;;;;7.36;52.02;99530.84;5008320;28;20025;-68
2022/09/28 07:43:40;;;;;;;8.63;2.30;;;;;;;7.86;49.79;99523.16;5011683;28;20118;-69
2022/09/28 07:46:10;;;;;;;5.22;2.95;;;;;;;8.32;49.44;99531.22;5026096;28;20510;-68
2022/09/28 07:48:44;;;;;;;4.32;2.88;;;;;;;8.02;46.84;99532.78;5032881;28;20033;-68
2022/09/28 07:51:29;;;;;;;3.47;2.33;;;;;;;8.11;47.28;99533.19;5017653;28;20415;-68
2022/09/28 07:54:16;;;;;;;7.28;3.13;;;;;;;8.17;48.76;99545.03;5011195;28;20426;-68
2022/09/28 07:57:00;;;;;;;3.83;2.72;;;;;;;8.09;49.75;99537.63;5010881;28;20312;-69
2022/09/28 07:59:44;;;;;;;3.75;2.97;;;;;;;9.11;48.06;99540.09;5010351;28;20586;-69
2022/09/28 08:02:31;;;;;;;3.92;3.40;;;;;;;10.24;44.27;99538.00;5012852;28;20041;-70
2022/09/28 08:04:58;;;;;;;4.88;2.40;;;;;;;9.00;45.21;99545.91;5005222;28;20038;-68
2022/09/28 08:07:24;;;;;;;3.95;2.88;;;;;;;8.97;48.10;99546.91;5007465;28;20041;-69
2022/09/28 08:10:00;;;;;;;7.72;3.00;;;;;;;9.15;46.98;99544.22;5011065;28;20526;-69
2022/09/28 08:12:25;;;;;;;5.45;3.03;;;;;;;8.34;47.58;99538.97;5010325;28;20041;-68
2022/09/28 08:15:10;;;;;;;3.85;2.90;;;;;;;8.58;48.51;99549.84;5008050;28;20047;-68
2022/09/28 08:17:45;;;;;;;6.25;3.67;;;;;;;8.80;47.21;99552.19;5007970;28;20473;-68
2022/09/28 08:23:01;;;;;;;4.90;2.92;;;;;;;9.34;46.21;99552.72;5027879;28;20061;-68
2022/09/28 08:25:26;;;;;;;3.60;2.53;;;;;;;9.71;45.06;99547.16;5007774;28;20038;-68
2022/09/28 08:27:53;;;;;;;5.75;2.83;;;;;;;9.84;46.39;99560.38;4986465;28;20038;-68
2022/09/28 08:30:22;;;;;;;3.35;2.55;;;;;;;9.35;45.21;99556.97;5008734;28;20049;-68
2022/09/28 08:33:03;;;;;;;3.08;2.72;;;;;;;10.04;46.52;99557.44;5004914;28;20105;-69
2022/09/28 08:35:42;;;;;;;3.22;2.17;;;;;;;10.56;42.36;99561.31;5008038;28;20045;-69
2022/09/28 08:38:13;;;;;;;3.22;2.80;;;;;;;12.00;43.14;99560.03;4990606;28;20577;-69
2022/09/28 08:41:10;;;;;;;8.02;2.90;;;;;;;12.83;40.86;99556.19;5007752;28;20418;-68
2022/09/28 08:43:56;;;;;;;3.53;2.60;;;;;;;12.81;38.18;99558.06;5011523;28;20034;-69
2022/09/28 08:46:37;;;;;;;3.58;2.67;;;;;;;13.04;40.52;99569.53;5014358;28;20041;-68
2022/09/28 08:49:33;;;;;;;3.78;2.38;;;;;;;13.67;39.71;99570.25;5006552;28;20046;-68
2022/09/28 08:52:22;;;;;;;3.22;2.00;;;;;;;13.43;38.52;99576.34;5000470;28;20070;-68
2022/09/28 08:55:18;;;;;;;2.83;1.98;;;;;;;12.94;39.48;99577.22;4997109;28;20073;-68
2022/09/28 08:58:12;;;;;;;2.90;2.05;;;;;;;13.80;39.46;99581.53;5005702;28;20414;-68
2022/09/28 09:00:46;;;;;;;4.88;1.80;;;;;;;13.76;37.96;99585.34;4997712;28;20042;-68
2022/09/28 09:03:15;;;;;;;2.28;1.35;;;;;;;13.83;40.34;99590.97;5012986;28;20365;-67
2022/09/28 09:06:02;;;;;;;;;;;;;;;13.46;39.36;99591.84;5009962;28;20026;-68
2022/09/28 09:09:08;;;;;;;2.50;1.63;;;;;;;13.36;39.86;99588.25;5012189;28;20278;-68
2022/09/28 09:11:40;;;;;;;2.65;1.15;;;;;;;13.22;42.67;99598.88;5028984;28;20077;-68
2022/09/28 09:14:14;;;;;;;2.83;2.00;;;;;;;13.16;43.33;99588.81;4965047;28;20120;-70
2022/09/28 09:16:39;;;;;;;2.85;1.80;;;;;;;13.84;39.62;99593.50;5007630;28;20038;-69
2022/09/28 09:19:45;;;;;;;2.47;1.48;;;;;;;14.73;38.50;99596.44;5009779;28;20419;-68
2022/09/28 09:22:37;;;;;;;2.25;1.52;;;;;;;14.40;38.81;99597.22;5008160;28;20092;-68
2022/09/28 09:25:24;;;;;;;3.30;2.40;;;;;;;13.47;39.82;99601.41;5027122;28;20086;-70
2022/09/28 09:28:28;;;;;;;4.32;2.25;;;;;;;13.62;41.58;99609.97;5003152;28;20045;-67
2022/09/28 09:31:15;;;;;;;3.60;2.03;;;;;;;14.64;36.91;99594.53;5026925;28;20064;-69
2022/09/28 09:34:16;;;;;;;5.07;3.00;;;;;;;15.37;38.67;99601.06;5005894;28;20042;-69
2022/09/28 09:37:03;;;;;;;3.72;2.63;;;;;;;16.10;36.33;99602.13;5007770;28;20041;-67
2022/09/28 09:39:47;;;;;;;3.80;1.67;;;;;;;15.54;36.55;99597.91;5004440;28;20485;-67
2022/09/28 09:42:35;;;;;;;3.05;1.75;;;;;;;15.27;37.32;99610.66;5007705;28;20048;-67
2022/09/28 09:45:43;;;;;;;1.88;1.15;;;;;;;14.64;39.36;99612.94;4999282;28;20045;-68
2022/09/28 09:48:25;;;;;;;2.28;1.30;;;;;;;15.81;36.64;99609.78;4989496;28;20382;-66
2022/09/28 09:51:20;;;;;;;1.52;1.25;;;;;;;15.17;37.95;99606.13;5027934;28;20068;-67
2022/09/28 09:54:17;;;;;;;2.90;0.80;;;;;;;15.86;36.98;99604.97;5012589;28;20514;-67
2022/09/28 09:56:52;;;;;;;2.45;1.38;;;;;;;15.15;36.73;99608.03;5011349;28;20075;-67
2022/09/28 09:59:40;;;;;;;1.63;0.93;;;;;;;15.07;36.86;99607.78;5009236;28;20078;-67
2022/09/28 10:02:30;;;;;;;1.13;0.73;;;;;;;14.49;38.29;99614.94;4995098;28;20262;-67
2022/09/28 10:05:10;;;;;;;2.13;0.90;;;;;;;13.57;39.49;99611.28;5005513;28;20048;-68
2022/09/28 10:07:42;;;;;;;1.83;0.80;;;;;;;13.09;43.05;99609.38;5028618;28;20705;-67
2022/09/28 10:10:31;;;;;;;2.60;1.10;;;;;;;12.64;42.85;99604.59;5009782;28;20033;-67
2022/09/28 10:13:07;;;;;;;1.88;1.02;;;;;;;12.23;44.07;99608.25;5009022;28;20049;-67
2022/09/28 10:15:35;;;;;;;2.05;1.10;;;;;;;12.17;45.29;99603.41;5013684;28;20042;-67
2022/09/28 10:18:15;;;;;;;1.70;0.93;;;;;;;11.90;45.10;99605.25;5019921;28;20037;-66
2022/09/28 10:21:20;;;;;;;1.00;0.80;;;;;;;11.80;44.96;99610.28;4933724;29;20051;-67
2022/09/28 10:24:30;;;;;;;2.20;0.70;;;;;;;12.06;45.07;99605.91;5015741;28;20049;-67
2022/09/28 10:27:04;;;;;;;2.50;1.10;;;;;;;12.56;44.36;99612.16;4987287;28;20033;-67
2022/09/28 10:29:38;;;;;;;1.08;0.55;;;;;;;13.32;43.26;99615.66;5005399;28;20065;-67
2022/09/28 10:32:17;;;;;;;4.82;0.93;;;;;;;14.54;41.44;99608.41;5001728;28;20141;-67
2022/09/28 10:34:44;;;;;;;1.88;0.90;;;;;;;15.40;38.50;99605.25;5002703;28;20041;-67
2022/09/28 10:37:15;;;;;;;1.85;0.90;;;;;;;15.58;37.01;99609.03;5007583;28;20133;-67
2022/09/28 10:40:19;;;;;;;2.22;0.70;;;;;;;15.78;35.98;99610.03;5016461;28;22001;-67
2022/09/28 10:42:44;;;;;;;2.55;0.95;;;;;;;16.39;37.08;99612.84;4988987;28;20034;-67
2022/09/28 10:45:22;;;;;;;1.30;0.82;;;;;;;15.37;38.68;99616.84;5008703;28;20170;-67
2022/09/28 10:47:48;;;;;;;5.18;0.50;;;;;;;14.92;39.10;99620.34;5008701;28;20118;-66
2022/09/28 10:50:24;;;;;;;6.82;0.60;;;;;;;14.73;37.81;99618.31;5028657;28;20335;-67
2022/09/28 10:53:30;;;;;;;4.47;1.23;;;;;;;14.62;38.31;99620.94;4992984;28;20502;-67
2022/09/28 10:56:03;;;;;;;2.15;0.70;;;;;;;13.15;41.10;99618.63;4960786;28;20046;-67
2022/09/28 10:58:38;;;;;;;3.70;1.05;;;;;;;13.51;41.04;99623.84;5009035;28;20040;-67
2022/09/28 11:01:09;;;;;;;2.80;0.73;;;;;;;13.80;40.39;99618.31;5011232;28;20096;-70
2022/09/28 11:03:59;;;;;;;2.03;0.50;;;;;;;14.54;39.56;99628.56;5008554;28;20034;-70
2022/09/28 11:06:29;;;;;;;1.25;0.47;;;;;;;14.46;39.21;99620.47;4994171;28;20044;-69
2022/09/28 11:08:58;;;;;;;3.03;0.77;;;;;;;14.30;39.73;99621.59;5012808;28;20037;-68
2022/09/28 11:11:25;;;;;;;0.77;0.32;;;;;;;14.40;40.01;99626.13;5008926;28;20065;-69
2022/09/28 11:14:00;;;;;;;5.03;0.63;;;;;;;14.02;39.28;99627.22;5008574;28;20038;-69
2022/09/28 11:16:31;;;;;;;3.53;0.88;;;;;;;13.76;40.34;99627.34;5011159;28;20445;-68
2022/09/28 11:19:30;;;;;;;1.30;0.40;;;;;;;13.55;41.29;99634.97;5011781;28;20290;-68
2022/09/28 11:21:56;;;;;;;1.20;0.77;;;;;;;13.45;41.61;99637.44;5013251;28;20502;-69
2022/09/28 11:24:30;;;;;;;2.20;0.70;;;;;;;13.31;42.26;99633.16;5016493;28;20205;-68
2022/09/28 11:26:59;;;;;;;3.40;0.82;;;;;;;12.46;42.65;99637.31;5008165;28;20041;-69
2022/09/28 11:29:40;;;;;;;5.93;0.55;;;;;;;12.96;42.65;99632.19;5011752;28;20057;-70
2022/09/28 11:32:15;;;;;;;2.25;0.52;;;;;;;12.16;44.47;99632.34;5008844;28;20046;-69
2022/09/28 11:35:01;;;;;;;2.40;0.65;;;;;;;12.69;42.10;99633.13;5008124;28;20042;-70
2022/09/28 11:38:01;;;;;;;3.70;0.77;;;;;;;13.10;42.94;99632.91;5010059;28;20045;-70
2022/09/28 11:40:58;;;;;;;1.42;0.52;;;;;;;13.72;41.83;99633.81;5010363;28;20099;-70
2022/09/28 11:43:23;;;;;;;2.05;0.63;;;;;;;14.07;40.45;99640.84;5011805;28;20462;-71
2022/09/28 11:46:14;;;;;;;1.90;0.50;;;;;;;13.56;41.42;99641.88;5008805;28;20029;-71
2022/09/28 11:48:53;;;;;;;2.88;1.52;;;;;;;13.77;40.20;99644.78;5008803;28;20037;-70
2022/09/28 11:51:25;;;;;;;1.48;1.02;;;;;;;14.27;39.47;99637.56;5012516;28;20656;-69
2022/09/28 11:53:58;;;;;;;1.25;0.70;;;;;;;14.88;38.15;99639.13;5011900;28;20041;-69
2022/09/28 11:56:42;;;;;;;1.80;0.63;;;;;;;15.31;37.07;99638.44;5013725;28;20030;-68
2022/09/28 11:59:26;;;;;;;1.85;0.38;;;;;;;15.14;36.95;99637.91;5028179;28;20037;-70
2022/09/28 12:01:56;;;;;;;0.88;0.63;;;;;;;14.93;37.46;99639.63;5009862;28;20410;-69
2022/09/28 12:04:37;;;;;;;0.75;0.45;;;;;;;15.54;37.75;99644.47;5013979;28;20029;-70
2022/09/28 12:07:17;;;;;;;1.00;0.30;;;;;;;16.27;35.77;99642.06;5006275;28;20041;-69
2022/09/28 12:09:56;;;;;;;2.80;0.40;;;;;;;16.17;35.21;99642.00;4997216;28;20058;-70
2022/09/28 12:12:41;;;;;;;1.25;0.60;;;;;;;15.69;35.05;99645.88;5012979;28;20327;-70
2022/09/28 12:15:27;;;;;;;1.00;0.30;;;;;;;17.07;34.78;99637.91;5005542;28;20580;-69
2022/09/28 12:18:06;;;;;;;2.75;0.50;;;;;;;17.52;34.55;99642.81;5006394;28;20081;-69
2022/09/28 12:20:37;;;;;;;0.55;0.20;;;;;;;16.77;34.25;99635.16;5011768;28;20057;-69